Estación Meteorológica Peña el Pijo (Robertgarden) [ 04/19/21 03:47:33 CEST ]

Fecha Hora Presion(HPa) Temp (°C) Humedad % Rocio (°C) Viento ( m/s) Direccion Lluvia 1Hora(mm) Lluvia 24H(mm) LLuvia Total(mm)
2021-Apr-16 01:09:17 1005.200 6.1 97 5.6 - N     89.61
2021-Apr-16 02:09:51 1005.200 5.9 97 5.4 - N     89.61
2021-Apr-16 03:09:22 1005.000 5.9 97 5.3 - N     89.61
2021-Apr-16 04:10:29 1004.600 5.3 96 4.7 - N     89.61
2021-Apr-16 05:10:08 1004.400 5.0 97 4.5 - N     89.61
2021-Apr-16 06:09:42 1004.500 4.2 97 3.8 - N     89.61
2021-Apr-16 07:09:59 1004.800 3.9 97 3.4 - N     89.61
2021-Apr-16 08:09:28 1004.900 4.3 97 3.8 - N     89.61
2021-Apr-16 09:09:39 1004.900 5.4 96 4.8 - N     89.61
2021-Apr-16 10:09:10 1005.100 12.8 87 10.7 - N     89.61
2021-Apr-16 11:09:22 1005.300 14.8 73 10.0 - N     89.61
2021-Apr-16 12:09:48 1005.400 15.9 50 5.5 - N     89.61
2021-Apr-16 13:09:17 1004.700 16.3 47 4.9 - N     89.61
2021-Apr-16 14:09:11 1004.500 17.0 41 3.6 - N     89.61
2021-Apr-16 15:09:25 1004.400 14.3 49 3.8 - N     89.61
2021-Apr-16 16:09:59 1003.600 14.9 49 4.3 - N     89.61
2021-Apr-16 17:09:04 1002.800 17.3 44 4.8 - N     89.61
2021-Apr-16 18:09:49 1003.400 15.1 43 2.5 - N     89.61
2021-Apr-16 19:09:21 1003.000 14.2 49 3.7 - N     89.61
2021-Apr-16 20:09:05 1004.100 10.1 67 4.2 - N     89.61
2021-Apr-16 21:09:55 1005.000 8.6 73 4.0 - N     89.61
2021-Apr-16 22:09:40 1005.800 7.8 79 4.4 - N     89.61
2021-Apr-16 23:09:16 1006.200 7.2 82 4.3 - N     89.61

Temperatura Máxima:17°    Temperatura Mínima:
Presión Máxima:1006.200 Hpa    Presión Mínima:1002.800 Hpa


Volver